Time;durP1;ratioP1;P1;durP2;ratioP2;P2;SDS_P1;SDS_P2;PMS_P1;PMS_P2;Temp;Humidity;BMP_temperature;BMP_pressure;BME280_temperature;BME280_humidity;BME280_pressure;Samples;Min_cycle;Max_cycle;Signal;HPM_P1;HPM_P2
2023/02/20 00:01:15;;;;;;;1.20;0.75;;;21.80;37.20;;;;;;5062022;28;20025;-53
2023/02/20 00:03:41;;;;;;;1.20;0.90;;;21.80;37.20;;;;;;5060771;28;20024;-52
2023/02/20 00:06:07;;;;;;;3.00;1.13;;;21.70;37.20;;;;;;5061762;28;20453;-51
2023/02/20 00:08:33;;;;;;;1.50;1.20;;;21.70;37.20;;;;;;5060394;28;20029;-51
2023/02/20 00:10:58;;;;;;;1.50;1.10;;;21.70;37.20;;;;;;5066941;28;20039;-53
2023/02/20 00:13:24;;;;;;;1.35;0.98;;;21.70;37.20;;;;;;5063499;28;20095;-53
2023/02/20 00:15:50;;;;;;;1.63;1.05;;;21.70;37.20;;;;;;5062481;28;20033;-53
2023/02/20 00:18:16;;;;;;;1.42;1.00;;;21.70;37.20;;;;;;5065978;28;20021;-54
2023/02/20 00:20:42;;;;;;;1.38;1.00;;;21.70;37.20;;;;;;5064912;28;20120;-54
2023/02/20 00:23:08;;;;;;;1.60;1.08;;;21.70;37.20;;;;;;5046618;28;20116;-49
2023/02/20 00:25:34;;;;;;;1.35;0.93;;;21.70;37.20;;;;;;5063491;28;20060;-49
2023/02/20 00:28:00;;;;;;;1.25;1.00;;;21.70;37.20;;;;;;5057478;28;20126;-52
2023/02/20 00:30:26;;;;;;;1.30;1.02;;;21.60;37.10;;;;;;5059523;28;20496;-54
2023/02/20 00:32:53;;;;;;;2.80;1.00;;;21.60;37.20;;;;;;5041318;28;20034;-52
2023/02/20 00:35:21;;;;;;;1.77;1.10;;;21.70;37.20;;;;;;5063912;28;20494;-52
2023/02/20 00:37:48;;;;;;;1.60;1.10;;;21.60;37.20;;;;;;5064796;28;20429;-49
2023/02/20 00:40:15;;;;;;;1.13;1.00;;;21.60;37.20;;;;;;5062337;28;20024;-52
2023/02/20 00:42:41;;;;;;;2.00;1.20;;;21.60;37.20;;;;;;5059685;28;20211;-56
2023/02/20 00:45:08;;;;;;;2.20;1.25;;;21.60;37.20;;;;;;5056433;28;20111;-51
2023/02/20 00:47:34;;;;;;;2.90;1.58;;;21.60;37.20;;;;;;5059219;28;20029;-52
2023/02/20 00:49:59;;;;;;;2.40;1.30;;;21.60;37.20;;;;;;5043724;28;20437;-51
2023/02/20 00:52:25;;;;;;;1.98;1.50;;;21.60;37.20;;;;;;5047228;28;20115;-49
2023/02/20 00:54:51;;;;;;;1.98;1.35;;;21.60;37.20;;;;;;5038235;28;20041;-49
2023/02/20 00:57:17;;;;;;;1.77;1.30;;;21.50;37.20;;;;;;5061709;28;20461;-54
2023/02/20 00:59:43;;;;;;;1.70;1.25;;;21.50;37.20;;;;;;5064911;28;20028;-51
2023/02/20 01:02:10;;;;;;;2.03;1.27;;;21.50;37.20;;;;;;5060888;28;20445;-52
2023/02/20 01:04:35;;;;;;;1.65;1.20;;;21.50;37.20;;;;;;5061199;28;20031;-53
2023/02/20 01:07:01;;;;;;;2.97;1.60;;;21.50;37.20;;;;;;5043239;28;20334;-53
2023/02/20 01:09:27;;;;;;;2.00;1.30;;;21.50;37.20;;;;;;5061781;28;20039;-52
2023/02/20 01:11:54;;;;;;;2.30;1.50;;;21.50;37.20;;;;;;5059265;28;20108;-49
2023/02/20 01:14:20;;;;;;;3.58;1.33;;;21.50;37.20;;;;;;5064230;28;20043;-53
2023/02/20 01:16:50;;;;;;;2.05;1.40;;;21.50;37.20;;;;;;5042410;28;20049;-54
2023/02/20 01:19:17;;;;;;;2.75;1.50;;;21.50;37.20;;;;;;5038233;28;20028;-52
2023/02/20 01:21:43;;;;;;;2.33;1.23;;;21.50;37.20;;;;;;5040793;28;20025;-54
2023/02/20 01:24:11;;;;;;;1.42;1.20;;;21.50;37.20;;;;;;5041610;28;20053;-53
2023/02/20 01:26:36;;;;;;;3.05;1.20;;;21.50;37.20;;;;;;5039122;28;20040;-51
2023/02/20 01:29:03;;;;;;;2.25;1.45;;;21.50;37.20;;;;;;5042561;28;20034;-51
2023/02/20 01:31:29;;;;;;;1.92;1.05;;;21.50;37.20;;;;;;5038574;28;20033;-52
2023/02/20 01:33:55;;;;;;;2.83;1.50;;;21.50;37.20;;;;;;5040648;28;20033;-50
2023/02/20 01:36:21;;;;;;;3.20;1.70;;;21.50;37.20;;;;;;5035988;28;20033;-49
2023/02/20 01:38:53;;;;;;;1.85;1.30;;;21.40;37.20;;;;;;5039299;28;20032;-52
2023/02/20 01:41:20;;;;;;;2.10;1.35;;;21.40;37.20;;;;;;5034790;28;20049;-52
2023/02/20 01:43:46;;;;;;;2.85;1.50;;;21.40;37.20;;;;;;5035532;28;20090;-50
2023/02/20 01:46:27;;;;;;;1.85;1.30;;;21.40;37.20;;;;;;5038486;28;20120;-52
2023/02/20 01:48:59;;;;;;;1.60;1.20;;;21.40;37.20;;;;;;5040910;28;20064;-55
2023/02/20 01:51:32;;;;;;;1.98;1.30;;;21.40;37.20;;;;;;5042456;28;20036;-47
2023/02/20 01:53:59;;;;;;;4.00;1.50;;;21.40;37.20;;;;;;5042280;28;20349;-49
2023/02/20 01:56:25;;;;;;;2.35;1.33;;;21.40;37.20;;;;;;5045195;28;20377;-49
2023/02/20 01:58:52;;;;;;;1.35;1.20;;;21.40;37.30;;;;;;5042511;28;20025;-54
2023/02/20 02:01:18;;;;;;;1.95;1.30;;;21.40;37.30;;;;;;5043123;28;20025;-49
2023/02/20 02:03:48;;;;;;;1.88;1.30;;;21.40;37.30;;;;;;5041322;28;20033;-54
2023/02/20 02:06:15;;;;;;;2.60;1.45;;;21.40;37.30;;;;;;5042204;28;20060;-54
2023/02/20 02:08:43;;;;;;;2.78;1.50;;;21.40;37.30;;;;;;5039878;28;20063;-50
2023/02/20 02:11:12;;;;;;;2.88;1.65;;;21.30;37.20;;;;;;5041856;28;20099;-52
2023/02/20 02:13:38;;;;;;;3.58;1.60;;;21.30;37.20;;;;;;5042240;28;20029;-50
2023/02/20 02:16:22;;;;;;;2.58;1.38;;;21.30;37.20;;;;;;5043530;28;20354;-50
2023/02/20 02:18:54;;;;;;;2.43;1.43;;;21.30;37.20;;;;;;5044427;28;20090;-53
2023/02/20 02:21:31;;;;;;;4.13;1.60;;;21.30;37.20;;;;;;5043054;28;20055;-51
2023/02/20 02:24:19;;;;;;;2.92;1.40;;;21.30;37.30;;;;;;5049612;28;20112;-48
2023/02/20 02:27:03;;;;;;;3.20;1.70;;;21.30;37.30;;;;;;5039621;28;20041;-53
2023/02/20 02:30:01;;;;;;;1.88;1.40;;;21.30;37.30;;;;;;5038900;28;20033;-52
2023/02/20 02:33:17;;;;;;;2.47;1.48;;;21.30;37.30;;;;;;5033642;28;20048;-51
2023/02/20 02:36:07;;;;;;;3.85;1.60;;;21.30;37.30;;;;;;5040961;28;20037;-50
2023/02/20 02:39:02;;;;;;;2.67;1.35;;;21.20;37.30;;;;;;5041619;28;20047;-52
2023/02/20 02:41:53;;;;;;;2.55;1.50;;;21.20;37.30;;;;;;5001300;28;20073;-50
2023/02/20 02:44:28;;;;;;;3.40;1.40;;;21.20;37.30;;;;;;5036898;28;20133;-50
2023/02/20 02:46:55;;;;;;;2.30;1.55;;;21.20;37.40;;;;;;5036731;28;20032;-51
2023/02/20 02:49:43;;;;;;;3.17;1.60;;;21.20;37.40;;;;;;5039072;28;20032;-49
2023/02/20 02:52:11;;;;;;;2.88;1.50;;;21.20;37.40;;;;;;5037331;28;20044;-50
2023/02/20 02:54:37;;;;;;;2.90;1.63;;;21.20;37.40;;;;;;5040778;28;20106;-50
2023/02/20 02:57:25;;;;;;;2.95;1.60;;;21.20;37.40;;;;;;5033547;28;20440;-52
2023/02/20 03:00:13;;;;;;;2.42;1.40;;;21.20;37.50;;;;;;5038387;28;20013;-53
2023/02/20 03:03:10;;;;;;;2.45;1.73;;;21.20;37.50;;;;;;5041988;28;20033;-50
2023/02/20 03:06:00;;;;;;;3.90;1.92;;;21.20;37.50;;;;;;5041763;28;20033;-53
2023/02/20 03:08:37;;;;;;;3.47;1.90;;;21.10;37.40;;;;;;5042298;28;20053;-51
2023/02/20 03:11:23;;;;;;;3.85;2.00;;;21.20;37.50;;;;;;5044725;28;20108;-52
2023/02/20 03:16:58;;;;;;;5.00;2.17;;;21.10;37.50;;;;;;5042579;28;20050;-51
2023/02/20 03:19:39;;;;;;;4.57;2.00;;;21.10;37.60;;;;;;5044072;28;20033;-53
2023/02/20 03:22:13;;;;;;;4.32;2.22;;;21.10;37.60;;;;;;5043035;28;20029;-55
2023/02/20 03:24:54;;;;;;;3.75;1.95;;;21.10;37.70;;;;;;5044934;28;20033;-52
2023/02/20 03:27:24;;;;;;;3.55;2.13;;;21.10;37.70;;;;;;5043275;28;20025;-52
2023/02/20 03:29:54;;;;;;;3.50;2.10;;;21.10;38.30;;;;;;5038117;28;20033;-52
2023/02/20 03:43:28;;;;;;;3.72;2.22;;;21.10;37.80;;;;;;5042363;28;20029;-52
2023/02/20 03:46:05;;;;;;;4.03;2.30;;;21.10;37.80;;;;;;5041204;28;20033;-50
2023/02/20 03:48:55;;;;;;;4.17;2.57;;;21.00;37.80;;;;;;5040591;28;20112;-49
2023/02/20 03:54:18;;;;;;;6.60;2.70;;;21.00;37.80;;;;;;5044861;28;20091;-48
2023/02/20 03:56:54;;;;;;;5.18;2.65;;;21.00;37.90;;;;;;5030248;28;20056;-51
2023/02/20 03:59:24;;;;;;;3.70;2.50;;;21.00;37.90;;;;;;5043968;28;20029;-48
2023/02/20 04:01:56;;;;;;;3.70;2.40;;;21.00;37.90;;;;;;5043536;28;20053;-49
2023/02/20 04:04:40;;;;;;;5.22;2.55;;;21.00;37.90;;;;;;5044776;28;20491;-53
2023/02/20 04:07:11;;;;;;;4.55;2.47;;;21.00;38.00;;;;;;5044547;28;20033;-49
2023/02/20 04:09:42;;;;;;;4.60;2.85;;;21.00;38.00;;;;;;5044084;28;20037;-48
2023/02/20 04:12:20;;;;;;;3.38;2.58;;;21.00;38.00;;;;;;5046456;28;20021;-48
2023/02/20 04:14:48;;;;;;;3.30;2.50;;;21.00;38.10;;;;;;5037866;28;20040;-48
2023/02/20 04:17:19;;;;;;;4.68;2.92;;;21.00;38.10;;;;;;5043797;28;20132;-50
2023/02/20 04:19:45;;;;;;;5.25;2.75;;;21.00;38.10;;;;;;5045359;28;20087;-48
2023/02/20 04:22:21;;;;;;;4.05;2.70;;;21.00;38.10;;;;;;5044315;28;20030;-53
2023/02/20 04:25:34;;;;;;;4.47;2.95;;;20.90;38.10;;;;;;5040023;28;20565;-47
2023/02/20 04:28:03;;;;;;;4.82;2.70;;;21.00;38.20;;;;;;5031408;28;20038;-54
2023/02/20 04:30:30;;;;;;;5.43;2.53;;;20.90;38.20;;;;;;5041196;28;20026;-53
2023/02/20 04:32:56;;;;;;;4.80;2.67;;;20.90;38.20;;;;;;5044435;28;20156;-55
2023/02/20 04:35:23;;;;;;;4.47;2.70;;;20.90;38.30;;;;;;5041215;28;20171;-54
2023/02/20 04:37:49;;;;;;;4.55;2.83;;;20.90;38.30;;;;;;5039403;28;20032;-50
2023/02/20 04:40:19;;;;;;;4.10;2.33;;;20.90;38.30;;;;;;5039054;28;20119;-52
2023/02/20 04:42:45;;;;;;;4.35;2.40;;;20.90;38.40;;;;;;5037026;28;20034;-52
2023/02/20 04:45:11;;;;;;;5.00;2.50;;;20.90;38.40;;;;;;5037840;28;20039;-52
2023/02/20 04:47:37;;;;;;;4.18;2.38;;;20.90;39.00;;;;;;5039878;28;20021;-54
2023/02/20 04:50:05;;;;;;;5.63;2.40;;;20.90;38.40;;;;;;5040042;28;20087;-51
2023/02/20 04:52:30;;;;;;;5.55;2.97;;;20.90;38.50;;;;;;5038419;28;20029;-53
2023/02/20 04:54:56;;;;;;;5.53;2.78;;;20.90;38.40;;;;;;5044028;28;20060;-50
2023/02/20 04:57:23;;;;;;;3.80;2.33;;;20.90;38.50;;;;;;5036902;28;20051;-48
2023/02/20 04:59:49;;;;;;;6.25;2.72;;;20.90;38.50;;;;;;5047972;28;20116;-49
2023/02/20 05:02:17;;;;;;;5.25;2.50;;;20.80;38.50;;;;;;5034192;28;20160;-50
2023/02/20 05:04:42;;;;;;;5.63;2.40;;;20.90;38.50;;;;;;5037900;28;20037;-51
2023/02/20 05:07:08;;;;;;;4.47;2.50;;;20.80;38.50;;;;;;5042168;28;20356;-49
2023/02/20 05:09:34;;;;;;;3.67;2.28;;;20.80;38.50;;;;;;5043835;28;20498;-50
2023/02/20 05:12:00;;;;;;;5.13;2.97;;;20.80;38.50;;;;;;5038569;28;20048;-52
2023/02/20 05:14:26;;;;;;;5.35;2.88;;;20.80;38.60;;;;;;5040326;28;20052;-50
2023/02/20 05:16:51;;;;;;;5.28;3.00;;;20.80;38.60;;;;;;5049706;28;20057;-52
2023/02/20 05:19:17;;;;;;;4.80;2.42;;;20.80;38.60;;;;;;5060482;28;20357;-48
2023/02/20 05:24:30;;;;;;;4.68;2.40;;;20.80;38.60;;;;;;5060971;28;20441;-51
2023/02/20 05:26:56;;;;;;;3.88;2.53;;;20.80;38.70;;;;;;5058994;28;20052;-47
2023/02/20 05:29:22;;;;;;;5.97;2.90;;;20.80;38.70;;;;;;5063930;28;20024;-49
2023/02/20 05:31:48;;;;;;;5.97;2.92;;;20.80;38.70;;;;;;5061205;28;20032;-48
2023/02/20 05:34:14;;;;;;;4.13;2.58;;;20.80;38.70;;;;;;5057448;28;20124;-51
2023/02/20 05:36:40;;;;;;;5.25;2.60;;;20.80;38.70;;;;;;5064938;28;20112;-47
2023/02/20 05:39:06;;;;;;;5.45;2.60;;;20.80;38.80;;;;;;5057770;28;20021;-50
2023/02/20 05:41:32;;;;;;;4.75;2.40;;;20.80;38.80;;;;;;5061021;28;20448;-52
2023/02/20 05:43:58;;;;;;;5.45;2.40;;;20.80;38.90;;;;;;5062571;28;20028;-50
2023/02/20 05:46:27;;;;;;;3.58;2.30;;;20.80;38.90;;;;;;5059873;28;20087;-52
2023/02/20 05:48:54;;;;;;;3.58;2.05;;;20.80;38.80;;;;;;5059929;28;20351;-51
2023/02/20 05:51:24;;;;;;;5.25;2.38;;;20.80;38.90;;;;;;5062335;28;20048;-50
2023/02/20 05:53:50;;;;;;;4.00;2.15;;;20.80;38.90;;;;;;5063565;28;20021;-48
2023/02/20 05:56:17;;;;;;;4.15;2.33;;;20.80;38.90;;;;;;5063665;28;20040;-49
2023/02/20 05:58:43;;;;;;;4.47;2.17;;;20.80;38.90;;;;;;5064496;28;20040;-52
2023/02/20 06:01:19;;;;;;;4.10;2.42;;;20.70;38.90;;;;;;5048163;28;20040;-52
2023/02/20 06:03:45;;;;;;;4.40;2.33;;;20.70;38.90;;;;;;5064794;28;20063;-52
2023/02/20 06:06:11;;;;;;;6.10;2.55;;;20.70;39.00;;;;;;5065637;28;20058;-49
2023/02/20 06:08:39;;;;;;;5.10;2.13;;;20.70;39.00;;;;;;5062810;28;20025;-49
2023/02/20 06:11:04;;;;;;;4.22;2.15;;;20.70;39.00;;;;;;5061673;28;20120;-50
2023/02/20 06:13:30;;;;;;;4.57;2.28;;;20.70;39.00;;;;;;5064321;28;20100;-52
2023/02/20 06:15:56;;;;;;;4.40;2.17;;;20.70;39.00;;;;;;5059214;28;20529;-51
2023/02/20 06:18:22;;;;;;;3.53;1.90;;;20.70;39.00;;;;;;5057316;28;20029;-49
2023/02/20 06:20:48;;;;;;;5.93;2.70;;;20.70;39.10;;;;;;5063665;28;20440;-49
2023/02/20 06:23:13;;;;;;;3.40;1.80;;;20.70;39.00;;;;;;5042487;28;20108;-50
2023/02/20 06:25:40;;;;;;;3.75;2.20;;;20.70;39.10;;;;;;5058455;28;20047;-51
2023/02/20 06:28:06;;;;;;;4.55;2.28;;;20.70;39.10;;;;;;5056009;28;20086;-53
2023/02/20 06:30:32;;;;;;;3.53;2.03;;;20.70;39.10;;;;;;5047689;28;20016;-50
2023/02/20 06:32:58;;;;;;;3.90;2.20;;;20.70;39.10;;;;;;5053874;28;20040;-48
2023/02/20 06:35:24;;;;;;;4.13;1.95;;;20.70;39.10;;;;;;5058756;28;20041;-49
2023/02/20 06:37:50;;;;;;;5.32;2.47;;;20.70;39.20;;;;;;5057623;28;20037;-53
2023/02/20 06:40:16;;;;;;;5.50;2.63;;;20.60;39.10;;;;;;5058580;28;20021;-51
2023/02/20 06:42:41;;;;;;;5.47;2.60;;;20.70;39.10;;;;;;5058546;28;20047;-50
2023/02/20 06:45:07;;;;;;;5.50;2.67;;;20.60;39.10;;;;;;5065430;28;20059;-51
2023/02/20 06:47:33;;;;;;;4.78;2.50;;;20.60;39.10;;;;;;5057239;28;20417;-50
2023/02/20 06:49:59;;;;;;;4.55;2.40;;;20.70;39.10;;;;;;5058163;28;20418;-53
2023/02/20 06:52:25;;;;;;;5.07;2.10;;;20.60;39.80;;;;;;5044166;28;20032;-53
2023/02/20 06:54:53;;;;;;;4.30;2.05;;;20.60;39.10;;;;;;5052641;28;20371;-55
2023/02/20 06:57:19;;;;;;;4.32;2.30;;;20.60;39.20;;;;;;5060104;28;20415;-50
2023/02/20 06:59:48;;;;;;;3.85;2.30;;;20.60;39.30;;;;;;5055292;28;20352;-52
2023/02/20 07:02:15;;;;;;;5.35;2.97;;;20.60;39.30;;;;;;5056336;28;20100;-53
2023/02/20 07:04:41;;;;;;;4.40;2.40;;;20.60;39.30;;;;;;5062695;28;20028;-50
2023/02/20 07:07:07;;;;;;;3.90;2.38;;;20.60;39.30;;;;;;5057567;28;20048;-50
2023/02/20 07:09:33;;;;;;;5.55;2.72;;;20.60;39.30;;;;;;5058656;28;20045;-55
2023/02/20 07:11:59;;;;;;;5.03;2.20;;;20.60;39.30;;;;;;5060777;28;20025;-54
2023/02/20 07:14:25;;;;;;;3.90;1.90;;;20.60;39.30;;;;;;5037805;28;20040;-54
2023/02/20 07:16:51;;;;;;;3.05;1.95;;;20.60;39.40;;;;;;5053884;28;20098;-54
2023/02/20 07:19:16;;;;;;;3.38;2.00;;;20.60;39.40;;;;;;5060130;28;20103;-53
2023/02/20 07:21:44;;;;;;;3.53;2.00;;;20.60;39.50;;;;;;5054519;28;20036;-53
2023/02/20 07:24:13;;;;;;;4.45;2.00;;;20.60;39.50;;;;;;5059182;28;20039;-54
2023/02/20 07:26:39;;;;;;;5.68;2.67;;;20.60;39.50;;;;;;5056978;28;20499;-52
2023/02/20 07:29:06;;;;;;;4.65;2.28;;;20.60;39.60;;;;;;5055369;28;20044;-54
2023/02/20 07:31:32;;;;;;;4.65;2.55;;;20.60;39.60;;;;;;5060410;28;20036;-53
2023/02/20 07:33:58;;;;;;;5.43;2.60;;;20.60;39.60;;;;;;5054364;28;20040;-50
2023/02/20 07:36:24;;;;;;;5.40;2.55;;;20.60;39.60;;;;;;5061888;28;20120;-52
2023/02/20 07:38:55;;;;;;;7.80;2.97;;;20.60;39.60;;;;;;5056402;28;20025;-54
2023/02/20 07:41:22;;;;;;;6.60;3.28;;;20.60;39.60;;;;;;5059043;28;20032;-53
2023/02/20 07:43:47;;;;;;;6.18;3.10;;;20.60;39.70;;;;;;5060537;28;20337;-53
2023/02/20 07:46:13;;;;;;;9.25;3.25;;;20.60;39.90;;;;;;5053856;28;20044;-56
2023/02/20 07:48:48;;;;;;;8.82;3.75;;;20.60;40.00;;;;;;5061632;28;20086;-58
2023/02/20 07:51:15;;;;;;;9.98;3.92;;;20.60;40.10;;;;;;5059683;28;20028;-58
2023/02/20 07:53:53;;;;;;;8.20;4.68;;;20.70;40.20;;;;;;5056549;28;20127;-56
2023/02/20 07:56:21;;;;;;;9.75;4.95;;;20.80;40.20;;;;;;5056556;28;20112;-57
2023/02/20 07:58:47;;;;;;;10.82;5.75;;;20.90;40.10;;;;;;5058737;28;20102;-55
2023/02/20 08:01:14;;;;;;;10.07;5.50;;;21.00;40.00;;;;;;5055034;28;20033;-56
2023/02/20 08:03:40;;;;;;;13.98;6.68;;;21.10;39.80;;;;;;5059580;28;20039;-54
2023/02/20 08:06:07;;;;;;;10.15;5.50;;;21.30;39.70;;;;;;5042400;28;20129;-52
2023/02/20 08:08:32;;;;;;;8.35;5.85;;;21.40;39.50;;;;;;5063373;28;20128;-56
2023/02/20 08:10:59;;;;;;;8.95;6.20;;;21.60;39.30;;;;;;5044268;28;20040;-56
2023/02/20 08:13:25;;;;;;;10.50;6.82;;;21.70;39.10;;;;;;5059785;28;20449;-55
2023/02/20 08:15:50;;;;;;;16.08;8.15;;;21.80;38.90;;;;;;5062926;28;20056;-53
2023/02/20 08:18:16;;;;;;;14.43;7.70;;;21.90;38.90;;;;;;5060847;28;20020;-54
2023/02/20 08:20:42;;;;;;;13.30;7.70;;;22.00;38.80;;;;;;5061294;28;20471;-54
2023/02/20 08:23:21;;;;;;;18.85;8.50;;;22.10;38.80;;;;;;5057728;28;20024;-51
2023/02/20 08:25:47;;;;;;;14.77;7.93;;;22.30;38.80;;;;;;5063472;28;20073;-53
2023/02/20 08:28:13;;;;;;;14.45;8.18;;;22.30;38.70;;;;;;5062164;28;20108;-54
2023/02/20 08:30:39;;;;;;;18.85;9.13;;;22.40;38.60;;;;;;5065583;28;20040;-55
2023/02/20 08:33:05;;;;;;;14.13;8.25;;;22.40;38.50;;;;;;5061193;28;20033;-56
2023/02/20 08:35:35;;;;;;;15.55;8.95;;;22.50;38.50;;;;;;5060802;28;20044;-57
2023/02/20 08:38:06;;;;;;;13.32;8.40;;;22.60;38.50;;;;;;5060488;28;20093;-52
2023/02/20 08:40:32;;;;;;;15.90;8.73;;;22.60;38.40;;;;;;5066801;28;20041;-54
2023/02/20 08:42:58;;;;;;;15.40;8.32;;;22.70;38.30;;;;;;5044252;28;20029;-55
2023/02/20 08:45:25;;;;;;;14.65;8.15;;;22.80;38.10;;;;;;5061807;28;20028;-52
2023/02/20 08:47:55;;;;;;;14.65;8.15;;;22.80;38.00;;;;;;5062935;28;20177;-54
2023/02/20 08:50:21;;;;;;;12.25;7.43;;;22.90;37.80;;;;;;5040499;28;20021;-56
2023/02/20 08:52:47;;;;;;;13.18;7.32;;;22.90;37.60;;;;;;5063845;28;20034;-51
2023/02/20 08:55:13;;;;;;;14.65;8.60;;;23.00;37.60;;;;;;5060104;28;20040;-55
2023/02/20 08:57:43;;;;;;;13.88;9.00;;;23.00;37.50;;;;;;5062905;28;20028;-56
2023/02/20 09:00:09;;;;;;;12.30;8.98;;;23.00;37.50;;;;;;5062263;28;20043;-55
2023/02/20 09:02:35;;;;;;;16.13;10.10;;;23.10;37.60;;;;;;5048184;28;20348;-50
2023/02/20 09:05:01;;;;;;;13.63;9.05;;;23.10;38.20;;;;;;5064952;28;20033;-53
2023/02/20 09:07:27;;;;;;;15.07;9.80;;;23.10;37.40;;;;;;5062199;28;20502;-51
2023/02/20 09:09:52;;;;;;;15.27;8.90;;;23.20;37.30;;;;;;5065735;28;20025;-50
2023/02/20 09:12:18;;;;;;;11.05;8.60;;;23.20;37.20;;;;;;5076339;28;20067;-50
2023/02/20 09:14:44;;;;;;;11.65;8.07;;;23.20;37.10;;;;;;5065525;28;20043;-54
2023/02/20 09:17:10;;;;;;;10.52;7.88;;;23.30;37.10;;;;;;5066034;28;20134;-49
2023/02/20 09:19:36;;;;;;;12.10;7.72;;;23.30;37.00;;;;;;5061970;28;20032;-51
2023/02/20 09:22:02;;;;;;;9.63;7.35;;;23.30;36.90;;;;;;5048136;28;20028;-54
2023/02/20 09:24:33;;;;;;;11.50;7.97;;;23.30;36.80;;;;;;5064618;28;20025;-52
2023/02/20 09:27:03;;;;;;;12.05;8.02;;;23.30;36.70;;;;;;5058047;28;20108;-53
2023/02/20 09:29:29;;;;;;;9.95;7.28;;;23.30;36.70;;;;;;5062733;28;20033;-49
2023/02/20 09:31:55;;;;;;;12.13;8.07;;;23.40;36.70;;;;;;5065680;28;20020;-49
2023/02/20 09:34:21;;;;;;;10.57;7.53;;;23.30;36.60;;;;;;5062057;28;20032;-52
2023/02/20 09:36:47;;;;;;;13.05;7.30;;;23.40;36.60;;;;;;5064036;28;20032;-51
2023/02/20 09:39:16;;;;;;;10.18;6.93;;;23.40;36.60;;;;;;5066054;28;20036;-54
2023/02/20 09:42:04;;;;;;;9.68;6.88;;;23.40;36.50;;;;;;5065472;28;20028;-54
2023/02/20 09:44:45;;;;;;;10.38;7.13;;;23.40;36.50;;;;;;5060034;28;20037;-51
2023/02/20 09:47:17;;;;;;;10.18;7.15;;;23.40;36.40;;;;;;5063864;28;20040;-55
2023/02/20 09:49:43;;;;;;;10.88;6.80;;;23.50;36.40;;;;;;5062057;28;20029;-50
2023/02/20 09:52:13;;;;;;;9.88;6.55;;;23.40;36.30;;;;;;5067730;28;20047;-54
2023/02/20 09:54:46;;;;;;;9.18;6.47;;;23.50;36.40;;;;;;5063056;28;20048;-55
2023/02/20 09:57:16;;;;;;;8.90;6.55;;;23.50;36.30;;;;;;5037212;28;20066;-54
2023/02/20 09:59:51;;;;;;;11.15;6.43;;;23.50;36.20;;;;;;5063762;28;20033;-55
2023/02/20 10:02:33;;;;;;;10.80;7.35;;;23.50;36.20;;;;;;5065233;28;20024;-55
2023/02/20 10:05:05;;;;;;;7.85;5.78;;;23.50;36.20;;;;;;5063240;28;20035;-54
2023/02/20 10:07:33;;;;;;;7.95;6.50;;;23.50;36.10;;;;;;5063137;28;20051;-53
2023/02/20 10:10:17;;;;;;;9.55;7.05;;;23.50;36.10;;;;;;5058798;28;20021;-53
2023/02/20 10:13:06;;;;;;;9.90;6.57;;;23.60;36.10;;;;;;5063129;28;20349;-55
2023/02/20 10:15:58;;;;;;;8.27;6.50;;;23.50;36.00;;;;;;5045253;28;20044;-51
2023/02/20 10:18:51;;;;;;;9.05;6.72;;;23.60;36.10;;;;;;5065713;28;20055;-50
2023/02/20 10:21:30;;;;;;;9.80;7.03;;;23.60;36.00;;;;;;5063394;28;20171;-54
2023/02/20 10:24:19;;;;;;;9.55;7.07;;;23.60;36.00;;;;;;5062150;28;20029;-51
2023/02/20 10:26:49;;;;;;;8.18;6.38;;;23.60;36.00;;;;;;5065101;28;20029;-57
2023/02/20 10:29:27;;;;;;;11.60;7.25;;;23.60;36.00;;;;;;5062092;28;20355;-55
2023/02/20 10:32:05;;;;;;;9.50;7.13;;;23.60;36.00;;;;;;5063241;28;20021;-56
2023/02/20 10:34:52;;;;;;;11.35;7.13;;;23.60;35.90;;;;;;5061953;28;20036;-56
2023/02/20 10:37:23;;;;;;;12.20;7.20;;;23.60;35.90;;;;;;5045694;28;20360;-55
2023/02/20 10:39:58;;;;;;;11.05;7.18;;;23.60;35.90;;;;;;5062404;28;20020;-55
2023/02/20 10:42:57;;;;;;;8.70;6.40;;;23.60;35.90;;;;;;5064300;28;20357;-53
2023/02/20 10:46:01;;;;;;;9.57;6.90;;;23.70;35.90;;;;;;5059116;28;20043;-50
2023/02/20 10:48:30;;;;;;;10.23;7.03;;;23.70;35.90;;;;;;5013237;28;20110;-51
2023/02/20 10:51:05;;;;;;;10.77;7.78;;;23.70;35.90;;;;;;5058240;28;20029;-57
2023/02/20 10:53:55;;;;;;;10.70;7.38;;;23.70;35.80;;;;;;5062781;28;20028;-54
2023/02/20 10:56:48;;;;;;;10.13;7.32;;;23.70;35.80;;;;;;5065467;28;20044;-56
2023/02/20 10:59:24;;;;;;;10.05;6.82;;;23.70;35.80;;;;;;5064512;28;20040;-54
2023/02/20 11:01:55;;;;;;;10.38;6.80;;;23.80;35.80;;;;;;5062929;28;20025;-53
2023/02/20 11:04:36;;;;;;;11.50;8.00;;;23.70;35.70;;;;;;5062521;28;20337;-55
2023/02/20 11:07:14;;;;;;;10.45;7.72;;;23.80;35.80;;;;;;5061952;28;20052;-54
2023/02/20 11:09:41;;;;;;;8.20;6.88;;;23.80;35.70;;;;;;5068685;28;20043;-53
2023/02/20 11:12:07;;;;;;;10.20;7.30;;;23.80;35.70;;;;;;5045168;28;20064;-54
2023/02/20 11:14:49;;;;;;;10.25;7.45;;;23.80;35.70;;;;;;5061673;28;20044;-56
2023/02/20 11:17:19;;;;;;;11.30;7.72;;;23.80;35.70;;;;;;5062631;28;20048;-54
2023/02/20 11:19:46;;;;;;;10.80;8.13;;;23.90;35.70;;;;;;5047916;28;20085;-55
2023/02/20 11:22:13;;;;;;;9.90;7.70;;;23.80;35.60;;;;;;5061755;28;20056;-55
2023/02/20 11:24:43;;;;;;;10.07;7.75;;;23.90;35.70;;;;;;5060871;28;20363;-51
2023/02/20 11:27:24;;;;;;;12.95;8.13;;;23.90;35.60;;;;;;5061821;28;20087;-55
2023/02/20 11:30:00;;;;;;;10.60;8.98;;;23.90;35.60;;;;;;5060788;28;20104;-56
2023/02/20 11:32:34;;;;;;;10.38;7.93;;;24.00;35.60;;;;;;5042588;28;20407;-56
2023/02/20 11:35:17;;;;;;;11.50;8.20;;;24.00;35.60;;;;;;5062378;28;20071;-54
2023/02/20 11:37:48;;;;;;;9.35;7.45;;;24.00;35.60;;;;;;5062701;28;20453;-52
2023/02/20 11:40:27;;;;;;;12.55;9.10;;;24.00;35.60;;;;;;5063747;28;20032;-53
2023/02/20 11:42:54;;;;;;;13.75;10.38;;;24.00;35.60;;;;;;5061300;28;20478;-56
2023/02/20 11:45:27;;;;;;;11.57;9.55;;;24.00;35.70;;;;;;5053193;28;20114;-53
2023/02/20 11:48:14;;;;;;;13.57;10.40;;;24.00;35.70;;;;;;5054471;28;20460;-54
2023/02/20 11:50:48;;;;;;;12.50;9.85;;;24.00;35.60;;;;;;5040559;28;20036;-55
2023/02/20 11:53:21;;;;;;;11.55;9.88;;;24.00;35.60;;;;;;5043006;28;20052;-54
2023/02/20 11:56:09;;;;;;;11.60;9.20;;;24.10;35.60;;;;;;5058534;28;20440;-55
2023/02/20 11:58:35;;;;;;;11.02;9.20;;;24.10;35.60;;;;;;5062594;28;20025;-55
2023/02/20 12:01:01;;;;;;;12.13;9.52;;;24.10;35.50;;;;;;5063606;28;20043;-56
2023/02/20 12:03:33;;;;;;;12.23;9.70;;;24.10;35.50;;;;;;5060676;28;20096;-56
2023/02/20 12:06:18;;;;;;;11.45;9.40;;;24.10;35.40;;;;;;5064895;28;20464;-55
2023/02/20 12:08:55;;;;;;;11.48;8.60;;;24.10;35.40;;;;;;5053023;28;20039;-54
2023/02/20 12:11:24;;;;;;;10.73;8.65;;;24.10;35.40;;;;;;5065067;28;20086;-56
2023/02/20 12:13:53;;;;;;;10.77;8.55;;;24.10;35.30;;;;;;5072643;28;20052;-55
2023/02/20 12:16:40;;;;;;;10.95;8.70;;;24.20;35.30;;;;;;5060940;28;20036;-53
2023/02/20 12:19:13;;;;;;;11.73;9.60;;;24.20;35.30;;;;;;5067442;28;20032;-51
2023/02/20 12:21:51;;;;;;;13.10;10.13;;;24.20;35.40;;;;;;5064917;28;20032;-52
2023/02/20 12:24:26;;;;;;;11.27;9.18;;;24.20;35.40;;;;;;5058634;28;20459;-56
2023/02/20 12:26:58;;;;;;;10.93;8.90;;;24.20;35.40;;;;;;5061378;28;20029;-56
2023/02/20 12:29:37;;;;;;;10.85;9.23;;;24.20;35.30;;;;;;5061489;28;20024;-54
2023/02/20 12:32:21;;;;;;;10.65;8.57;;;24.20;35.30;;;;;;5064649;28;20055;-55
2023/02/20 12:34:57;;;;;;;;;;;24.20;35.30;;;;;;5060246;28;20189;-55
2023/02/20 12:37:48;;;;;;;12.20;8.57;;;24.20;35.30;;;;;;5060957;28;20344;-52
2023/02/20 12:40:35;;;;;;;8.80;7.72;;;24.20;35.20;;;;;;5064803;28;20029;-54
2023/02/20 12:43:19;;;;;;;10.73;8.32;;;24.20;35.30;;;;;;5063586;28;20094;-57
2023/02/20 12:46:00;;;;;;;10.40;8.30;;;24.20;35.30;;;;;;5063148;28;20071;-54
2023/02/20 12:48:49;;;;;;;10.95;8.27;;;24.20;35.30;;;;;;5059742;28;20075;-56
2023/02/20 12:51:40;;;;;;;9.05;7.80;;;24.20;35.30;;;;;;5063931;28;21537;-57
2023/02/20 12:54:38;;;;;;;9.50;8.13;;;24.20;35.20;;;;;;5064813;28;20029;-54
2023/02/20 12:57:13;;;;;;;9.95;8.35;;;24.20;35.30;;;;;;5060086;28;20041;-55
2023/02/20 12:59:45;;;;;;;10.05;8.18;;;24.20;35.30;;;;;;5065229;28;20036;-54
2023/02/20 13:02:22;;;;;;;11.55;8.52;;;24.20;35.30;;;;;;5061948;28;20037;-55
2023/02/20 13:04:54;;;;;;;9.82;7.85;;;24.20;35.30;;;;;;5061587;28;20033;-56
2023/02/20 13:07:44;;;;;;;9.40;7.90;;;24.20;35.20;;;;;;5057853;28;20465;-55
2023/02/20 13:10:45;;;;;;;8.80;7.78;;;24.20;35.20;;;;;;5061789;28;20017;-55
2023/02/20 13:13:11;;;;;;;9.30;7.05;;;24.20;35.20;;;;;;4993741;28;20045;-53
2023/02/20 13:16:03;;;;;;;9.65;7.78;;;24.20;35.20;;;;;;5036137;28;20049;-55
2023/02/20 13:18:50;;;;;;;12.80;8.43;;;24.20;35.20;;;;;;5065384;28;20051;-56
2023/02/20 13:21:20;;;;;;;10.80;8.60;;;24.20;35.20;;;;;;5056572;28;20958;-56
2023/02/20 13:23:49;;;;;;;10.85;8.98;;;24.20;35.20;;;;;;5060848;28;20337;-52
2023/02/20 13:26:33;;;;;;;10.95;9.80;;;24.20;35.30;;;;;;5060782;28;20020;-57